KHEZ/HEZ METAR and TAF weather

Enter ICAO airport designator
Station Type Date Time Source
KHEZ METAR 2022/06/27 17:30 UTC NOAA

KHEZ 271730Z AUTO 02008KT 10SM OVC016 26/23 A3014 RMK AO2


Station Type Date Time Source
KHEZ Decoded METAR 2022/06/27 17:30 UTC NOAA

Natchez, Hardy-Anders Field Natchez-Adams County Airport, MS, United States (KHEZ) 31-37N 091-18W
Jun 27, 2022 - 01:30 PM EDT / 2022.06.27 1730 UTC
Wind: from the NNE (020 degrees) at 9 MPH (8 KT):0
Visibility: 10 mile(s):0
Sky conditions: overcast
Temperature: 78 F (26 C)
Dew Point: 73 F (23 C)
Relative Humidity: 83%
Pressure (altimeter): 30.14 in. Hg (1020 hPa)
ob: KHEZ 271730Z AUTO 02008KT 10SM OVC016 26/23 A3014 RMK AO2
cycle: 17

Station Type Date Time Source
KHEZ TAF UTC NOAA

Error!

Example: see airport list